Time;durP1;ratioP1;P1;durP2;ratioP2;P2;SDS_P1;SDS_P2;PMS_P1;PMS_P2;Temp;Humidity;BMP_temperature;BMP_pressure;BME280_temperature;BME280_humidity;BME280_pressure;Samples;Min_cycle;Max_cycle;Signal;HPM_P1;HPM_P2
2022/07/21 00:02:35;;;;;;;;;;;22.30;99.90;;;;;;5122843;27;19911;-54
2022/07/21 00:05:15;;;;;;;;;;;22.20;99.90;;;;;;5124722;27;19911;-54
2022/07/21 00:07:55;;;;;;;;;;;22.00;99.90;;;;;;5124094;27;19918;-53
2022/07/21 00:10:35;;;;;;;;;;;21.90;99.90;;;;;;5124402;27;19912;-53
2022/07/21 00:13:14;;;;;;;;;;;21.70;99.90;;;;;;5124736;27;19912;-54
2022/07/21 00:15:54;;;;;;;;;;;21.60;99.90;;;;;;5123856;27;19918;-54
2022/07/21 00:18:34;;;;;;;;;;;21.60;99.90;;;;;;5104539;27;20540;-53
2022/07/21 00:21:14;;;;;;;;;;;21.50;99.90;;;;;;5103702;27;19912;-54
2022/07/21 00:23:54;;;;;;;;;;;21.50;99.90;;;;;;5144737;27;20378;-53
2022/07/21 00:26:34;;;;;;;;;;;21.50;99.90;;;;;;5103248;27;19912;-53
2022/07/21 00:29:13;;;;;;;;;;;21.60;99.90;;;;;;5124769;27;19915;-52
2022/07/21 00:31:53;;;;;;;;;;;21.70;99.90;;;;;;5145100;27;19911;-55
2022/07/21 00:34:33;;;;;;;;;;;21.80;99.90;;;;;;5121349;27;20273;-53
2022/07/21 00:37:13;;;;;;;;;;;21.90;99.90;;;;;;5123894;27;19922;-54
2022/07/21 00:39:53;;;;;;;;;;;22.00;99.90;;;;;;5116727;27;19915;-53
2022/07/21 00:42:33;;;;;;;;;;;22.20;99.90;;;;;;5122928;27;19912;-53
2022/07/21 00:45:13;;;;;;;;;;;22.20;99.90;;;;;;5113041;27;19914;-53
2022/07/21 00:47:54;;;;;;;;;;;22.40;99.90;;;;;;5123405;27;19922;-53
2022/07/21 00:50:35;;;;;;;;;;;22.40;99.90;;;;;;5124080;27;19912;-53
2022/07/21 00:53:15;;;;;;;;;;;22.30;99.90;;;;;;5125117;27;20262;-53
2022/07/21 00:55:55;;;;;;;;;;;22.20;99.90;;;;;;5123638;27;19911;-53
2022/07/21 00:58:35;;;;;;;;;;;22.00;99.90;;;;;;5123482;27;19911;-53
2022/07/21 01:01:16;;;;;;;;;;;21.80;99.90;;;;;;5124074;27;19915;-54
2022/07/21 01:03:56;;;;;;;;;;;21.60;99.90;;;;;;5158625;27;19911;-54
2022/07/21 01:06:36;;;;;;;;;;;21.60;99.90;;;;;;5103740;27;20134;-54
2022/07/21 01:09:16;;;;;;;;;;;21.50;99.90;;;;;;5122875;27;19925;-54
2022/07/21 01:11:55;;;;;;;;;;;21.30;99.90;;;;;;5146944;27;19915;-54
2022/07/21 01:14:35;;;;;;;;;;;21.20;99.90;;;;;;5119682;27;19912;-54
2022/07/21 01:17:15;;;;;;;;;;;21.20;99.90;;;;;;5124133;27;20323;-53
2022/07/21 01:19:55;;;;;;;;;;;21.10;99.90;;;;;;5124534;27;20387;-53
2022/07/21 01:22:36;;;;;;;;;;;21.00;99.90;;;;;;5124605;27;19925;-54
2022/07/21 01:25:17;;;;;;;;;;;21.00;99.90;;;;;;5114605;27;19916;-53
2022/07/21 01:27:58;;;;;;;;;;;21.00;99.90;;;;;;5103664;27;19916;-54
2022/07/21 01:30:37;;;;;;;;;;;21.00;99.90;;;;;;5095012;27;19920;-54
2022/07/21 01:33:17;;;;;;;;;;;20.90;99.90;;;;;;5124838;27;19918;-55
2022/07/21 01:35:57;;;;;;;;;;;20.90;99.90;;;;;;5123738;27;20156;-53
2022/07/21 01:41:34;;;;;;;;;;;21.00;99.90;;;;;;5125128;27;19912;-53
2022/07/21 01:44:14;;;;;;;;;;;21.00;99.90;;;;;;5123319;27;19985;-53
2022/07/21 01:46:54;;;;;;;;;;;21.10;99.90;;;;;;5123483;27;19916;-53
2022/07/21 01:49:34;;;;;;;;;;;21.10;99.90;;;;;;5101795;27;20378;-55
2022/07/21 01:52:14;;;;;;;;;;;21.10;99.90;;;;;;5124034;27;20393;-53
2022/07/21 01:54:53;;;;;;;;;;;21.10;99.90;;;;;;5144112;27;19911;-53
2022/07/21 01:57:33;;;;;;;;;;;21.00;99.90;;;;;;5101855;27;19946;-54
2022/07/21 02:00:13;;;;;;;;;;;21.00;99.90;;;;;;5124063;27;20195;-53
2022/07/21 02:02:53;;;;;;;;;;;21.00;99.90;;;;;;5096259;27;19970;-53
2022/07/21 02:05:36;;;;;;;;;;;21.10;99.90;;;;;;5111151;27;19916;-54
2022/07/21 02:08:16;;;;;;;;;;;21.10;99.90;;;;;;5124301;27;20312;-53
2022/07/21 02:10:58;;;;;;;;;;;21.20;99.90;;;;;;5123564;27;19916;-53
2022/07/21 02:13:39;;;;;;;;;;;21.20;99.90;;;;;;5102546;27;19920;-54
2022/07/21 02:16:18;;;;;;;;;;;21.20;99.90;;;;;;5123816;27;19911;-52
2022/07/21 02:18:58;;;;;;;;;;;21.20;99.90;;;;;;5122618;27;19926;-53
2022/07/21 02:21:38;;;;;;;;;;;21.20;99.90;;;;;;5124191;27;19911;-53
2022/07/21 02:24:18;;;;;;;;;;;21.20;99.90;;;;;;5121118;27;19969;-53
2022/07/21 02:26:58;;;;;;;;;;;21.10;99.90;;;;;;5123590;27;19916;-54
2022/07/21 02:29:38;;;;;;;;;;;21.00;99.90;;;;;;5144404;27;20145;-55
2022/07/21 02:32:17;;;;;;;;;;;20.80;99.90;;;;;;5123963;27;19911;-54
2022/07/21 02:34:57;;;;;;;;;;;20.70;99.90;;;;;;5117628;27;19954;-53
2022/07/21 02:37:37;;;;;;;;;;;20.70;99.90;;;;;;5123159;27;19912;-54
2022/07/21 02:40:17;;;;;;;;;;;20.60;99.90;;;;;;5103692;27;20362;-54
2022/07/21 02:42:57;;;;;;;;;;;20.50;99.90;;;;;;5123970;27;20385;-54
2022/07/21 02:45:37;;;;;;;;;;;20.50;99.90;;;;;;5089325;27;20297;-53
2022/07/21 02:48:18;;;;;;;;;;;20.50;99.90;;;;;;5102042;27;20439;-53
2022/07/21 02:50:59;;;;;;;;;;;20.50;99.90;;;;;;5123810;27;19922;-54
2022/07/21 02:53:39;;;;;;;;;;;20.60;99.90;;;;;;5082336;28;19923;-54
2022/07/21 02:56:19;;;;;;;;;;;20.70;99.90;;;;;;5123394;27;19920;-54
2022/07/21 02:58:59;;;;;;;;;;;20.70;99.90;;;;;;5124215;27;20270;-53
2022/07/21 03:01:39;;;;;;;;;;;20.60;99.90;;;;;;5124479;27;20443;-53
2022/07/21 03:04:19;;;;;;;;;;;20.60;99.90;;;;;;5103145;27;20146;-52
2022/07/21 03:06:58;;;;;;;;;;;20.50;99.90;;;;;;5096654;22;20353;-54
2022/07/21 03:09:38;;;;;;;;;;;20.40;99.90;;;;;;5104992;27;19918;-55
2022/07/21 03:12:18;;;;;;;;;;;20.30;99.90;;;;;;5125298;27;19912;-54
2022/07/21 03:14:58;;;;;;;;;;;20.20;99.90;;;;;;5124852;27;19912;-55
2022/07/21 03:17:38;;;;;;;;;;;20.10;99.90;;;;;;5123873;27;20567;-55
2022/07/21 03:20:17;;;;;;;;;;;20.00;99.90;;;;;;5105374;27;19912;-55
2022/07/21 03:22:57;;;;;;;;;;;20.00;99.90;;;;;;5125981;27;19911;-55
2022/07/21 03:25:37;;;;;;;;;;;19.90;99.90;;;;;;5123954;27;19916;-54
2022/07/21 03:28:18;;;;;;;;;;;19.90;99.90;;;;;;5122424;27;20430;-54
2022/07/21 03:30:58;;;;;;;;;;;19.90;99.90;;;;;;5120967;27;19920;-55
2022/07/21 03:33:38;;;;;;;;;;;20.00;99.90;;;;;;5125313;27;19918;-54
2022/07/21 03:36:18;;;;;;;;;;;20.00;99.90;;;;;;5112631;27;19912;-55
2022/07/21 03:38:58;;;;;;;;;;;20.00;99.90;;;;;;5123133;27;20192;-56
2022/07/21 03:41:38;;;;;;;;;;;20.10;99.90;;;;;;5124543;27;19922;-55
2022/07/21 03:44:18;;;;;;;;;;;20.10;99.90;;;;;;5125017;27;20360;-54
2022/07/21 03:46:58;;;;;;;;;;;20.20;99.90;;;;;;5125409;27;19916;-54
2022/07/21 03:49:39;;;;;;;;;;;20.30;99.90;;;;;;5126773;27;19912;-55
2022/07/21 03:52:19;;;;;;;;;;;20.30;99.90;;;;;;5126020;27;20323;-54
2022/07/21 03:55:08;;;;;;;;;;;20.40;99.90;;;;;;5125223;27;20400;-54
2022/07/21 03:57:49;;;;;;;;;;;20.40;99.90;;;;;;5084620;28;19912;-55
2022/07/21 04:00:30;;;;;;;;;;;20.50;99.90;;;;;;5104938;27;19930;-55
2022/07/21 04:03:12;;;;;;;;;;;20.70;99.90;;;;;;5126365;27;19911;-55
2022/07/21 04:05:52;;;;;;;;;;;20.80;99.90;;;;;;5076333;28;19913;-55
2022/07/21 04:08:32;;;;;;;;;;;20.90;99.90;;;;;;5125523;27;20388;-56
2022/07/21 04:11:12;;;;;;;;;;;21.10;99.90;;;;;;5104299;27;19916;-55
2022/07/21 04:13:52;;;;;;;;;;;21.20;99.90;;;;;;5125589;27;19915;-55
2022/07/21 04:16:32;;;;;;;;;;;21.30;99.90;;;;;;5091032;27;19953;-56
2022/07/21 04:19:11;;;;;;;;;;;21.40;99.90;;;;;;5104741;27;19930;-56
2022/07/21 04:21:51;;;;;;;;;;;21.40;99.90;;;;;;5125429;27;19912;-56
2022/07/21 04:24:31;;;;;;;;;;;21.50;99.90;;;;;;5124446;27;19916;-55
2022/07/21 04:27:11;;;;;;;;;;;21.50;99.90;;;;;;5104658;27;19946;-55
2022/07/21 04:29:51;;;;;;;;;;;21.50;99.90;;;;;;5126287;27;19945;-55
2022/07/21 04:32:30;;;;;;;;;;;21.50;99.90;;;;;;5126154;27;20309;-57
2022/07/21 04:35:11;;;;;;;;;;;21.50;99.90;;;;;;5102980;27;19920;-55
2022/07/21 04:37:51;;;;;;;;;;;21.40;99.90;;;;;;5125234;27;19912;-55
2022/07/21 04:40:32;;;;;;;;;;;21.50;99.90;;;;;;5125474;27;19918;-55
2022/07/21 04:43:11;;;;;;;;;;;21.50;99.90;;;;;;5126442;27;20273;-54
2022/07/21 04:45:51;;;;;;;;;;;21.60;99.90;;;;;;5117269;27;19912;-54
2022/07/21 04:48:31;;;;;;;;;;;21.70;99.90;;;;;;5104893;27;19926;-54
2022/07/21 04:51:11;;;;;;;;;;;21.90;99.90;;;;;;5119596;27;19916;-56
2022/07/21 04:53:51;;;;;;;;;;;22.10;99.90;;;;;;5104271;27;19919;-55
2022/07/21 04:56:31;;;;;;;;;;;22.30;99.90;;;;;;5111397;27;19916;-54
2022/07/21 04:59:12;;;;;;;;;;;22.40;99.90;;;;;;5125617;27;19916;-55
2022/07/21 05:01:52;;;;;;;;;;;22.40;99.90;;;;;;5125353;27;19918;-55
2022/07/21 05:04:32;;;;;;;;;;;22.40;99.90;;;;;;5105805;27;19918;-55
2022/07/21 05:07:12;;;;;;;;;;;22.50;99.90;;;;;;5084119;28;20381;-56
2022/07/21 05:09:52;;;;;;;;;;;22.50;99.90;;;;;;5105320;27;20385;-54
2022/07/21 05:12:31;;;;;;;;;;;23.00;99.90;;;;;;5105841;27;19916;-54
2022/07/21 05:15:12;;;;;;;;;;;23.40;99.90;;;;;;5105268;27;19930;-55
2022/07/21 05:17:52;;;;;;;;;;;23.60;99.90;;;;;;5125237;27;19934;-55
2022/07/21 05:20:32;;;;;;;;;;;23.80;99.90;;;;;;5125907;27;19912;-56
2022/07/21 05:23:12;;;;;;;;;;;24.00;99.90;;;;;;5106226;27;19954;-54
2022/07/21 05:25:52;;;;;;;;;;;24.40;99.90;;;;;;5124870;27;19918;-55
2022/07/21 05:28:32;;;;;;;;;;;24.80;99.90;;;;;;5125214;27;19930;-55
2022/07/21 05:31:12;;;;;;;;;;;25.40;99.90;;;;;;5125698;27;19920;-55
2022/07/21 05:33:51;;;;;;;;;;;25.80;99.90;;;;;;5126119;27;19938;-56
2022/07/21 05:36:31;;;;;;;;;;;26.10;99.90;;;;;;5111488;27;20324;-55
2022/07/21 05:39:11;;;;;;;;;;;26.00;99.90;;;;;;5149869;27;19925;-54
2022/07/21 05:41:51;;;;;;;;;;;25.70;99.90;;;;;;5124808;27;19920;-55
2022/07/21 05:44:31;;;;;;;;;;;25.40;99.90;;;;;;5125381;27;19912;-54
2022/07/21 05:47:11;;;;;;;;;;;25.10;99.90;;;;;;5125292;27;19912;-55
2022/07/21 05:49:50;;;;;;;;;;;24.80;99.90;;;;;;5105624;27;19930;-54
2022/07/21 05:52:30;;;;;;;;;;;24.60;99.90;;;;;;5105622;27;19930;-56
2022/07/21 05:55:10;;;;;;;;;;;24.40;99.90;;;;;;5123710;27;19915;-55
2022/07/21 05:57:50;;;;;;;;;;;24.50;99.90;;;;;;5125270;27;19916;-55
2022/07/21 06:00:30;;;;;;;;;;;24.60;99.90;;;;;;5105643;27;19916;-55
2022/07/21 06:03:10;;;;;;;;;;;24.60;99.90;;;;;;5125856;27;20323;-55
2022/07/21 06:05:51;;;;;;;;;;;24.70;99.90;;;;;;5097068;27;19916;-55
2022/07/21 06:08:31;;;;;;;;;;;24.60;99.90;;;;;;5125194;27;19916;-55
2022/07/21 06:11:12;;;;;;;;;;;24.50;99.90;;;;;;5152774;27;19923;-56
2022/07/21 06:13:52;;;;;;;;;;;24.30;99.90;;;;;;5123447;27;19915;-54
2022/07/21 06:16:32;;;;;;;;;;;24.10;99.90;;;;;;5107365;27;19926;-55
2022/07/21 06:19:12;;;;;;;;;;;24.10;99.90;;;;;;5125470;27;20195;-54
2022/07/21 06:21:52;;;;;;;;;;;24.00;99.90;;;;;;5099093;27;20327;-55
2022/07/21 06:24:31;;;;;;;;;;;23.90;99.90;;;;;;5125143;27;20440;-55
2022/07/21 06:27:11;;;;;;;;;;;23.70;99.90;;;;;;5124868;27;19912;-56
2022/07/21 06:29:51;;;;;;;;;;;23.40;99.90;;;;;;5104947;27;19926;-55
2022/07/21 06:32:31;;;;;;;;;;;23.10;99.90;;;;;;5125941;27;19926;-54
2022/07/21 06:35:11;;;;;;;;;;;23.00;99.90;;;;;;5103490;27;20311;-54
2022/07/21 06:37:50;;;;;;;;;;;23.00;99.90;;;;;;5124736;27;20343;-54
2022/07/21 06:40:31;;;;;;;;;;;23.00;99.90;;;;;;5121476;27;19912;-55
2022/07/21 06:43:12;;;;;;;;;;;22.80;99.90;;;;;;5092498;27;19912;-55
2022/07/21 06:45:52;;;;;;;;;;;22.80;99.90;;;;;;5116170;27;19919;-56
2022/07/21 06:48:31;;;;;;;;;;;22.70;99.90;;;;;;5105527;27;19919;-54
2022/07/21 06:51:11;;;;;;;;;;;22.70;99.90;;;;;;5125622;27;19911;-56
2022/07/21 06:53:51;;;;;;;;;;;22.50;99.90;;;;;;5125645;27;19912;-54
2022/07/21 06:56:31;;;;;;;;;;;22.20;99.90;;;;;;5110579;27;19916;-55
2022/07/21 06:59:11;;;;;;;;;;;22.00;99.90;;;;;;5152032;27;19911;-55
2022/07/21 07:01:50;;;;;;;;;;;21.80;99.90;;;;;;5110112;27;19926;-55
2022/07/21 07:04:30;;;;;;;;;;;21.50;99.90;;;;;;5105304;27;19919;-55
2022/07/21 07:07:10;;;;;;;;;;;21.40;99.90;;;;;;5123980;27;19912;-55
2022/07/21 07:09:50;;;;;;;;;;;21.10;99.90;;;;;;5126051;27;19916;-55
2022/07/21 07:12:30;;;;;;;;;;;20.90;99.90;;;;;;5120834;27;19916;-55
2022/07/21 07:15:10;;;;;;;;;;;20.70;99.90;;;;;;5080428;28;19917;-54
2022/07/21 07:17:51;;;;;;;;;;;20.50;99.90;;;;;;5117838;27;19912;-55
2022/07/21 07:20:31;;;;;;;;;;;20.40;99.90;;;;;;5123568;27;20368;-56
2022/07/21 07:23:11;;;;;;;;;;;20.40;99.90;;;;;;5119685;27;19920;-55
2022/07/21 07:25:51;;;;;;;;;;;20.40;99.90;;;;;;5095561;27;20431;-55
2022/07/21 07:28:30;;;;;;;;;;;20.40;99.90;;;;;;5125205;27;19912;-55
2022/07/21 07:31:10;;;;;;;;;;;20.50;99.90;;;;;;5125693;27;19912;-55
2022/07/21 07:33:50;;;;;;;;;;;20.70;99.90;;;;;;5163449;27;19911;-55
2022/07/21 07:36:30;;;;;;;;;;;20.90;99.90;;;;;;5090437;27;19954;-55
2022/07/21 07:39:10;;;;;;;;;;;21.10;99.90;;;;;;5124621;27;19911;-56
2022/07/21 07:41:50;;;;;;;;;;;21.30;99.90;;;;;;5125042;27;20348;-56
2022/07/21 07:44:29;;;;;;;;;;;21.50;99.90;;;;;;5125112;27;19912;-58
2022/07/21 07:47:09;;;;;;;;;;;21.60;99.90;;;;;;5109846;27;19912;-55
2022/07/21 07:49:50;;;;;;;;;;;21.70;99.90;;;;;;5104913;27;19977;-54
2022/07/21 07:52:31;;;;;;;;;;;21.60;99.90;;;;;;5124630;27;19912;-55
2022/07/21 07:55:12;;;;;;;;;;;21.50;99.90;;;;;;5122911;27;20145;-55
2022/07/21 07:57:52;;;;;;;;;;;21.30;99.90;;;;;;5103345;27;19916;-55
2022/07/21 08:00:32;;;;;;;;;;;21.20;99.90;;;;;;5093211;28;20292;-54
2022/07/21 08:03:11;;;;;;;;;;;21.20;99.90;;;;;;5125240;27;20373;-54
2022/07/21 08:05:51;;;;;;;;;;;21.20;99.90;;;;;;5117225;27;19913;-55
2022/07/21 08:08:31;;;;;;;;;;;21.10;99.90;;;;;;5105056;27;19911;-55
2022/07/21 08:11:13;;;;;;;;;;;21.10;99.90;;;;;;5125394;27;19912;-56
2022/07/21 08:13:52;;;;;;;;;;;21.10;99.90;;;;;;5104732;27;19912;-55
2022/07/21 08:16:32;;;;;;;;;;;21.20;99.90;;;;;;5146787;27;20521;-55
2022/07/21 08:19:12;;;;;;;;;;;21.30;99.90;;;;;;5124529;27;19912;-55
2022/07/21 08:21:52;;;;;;;;;;;21.40;99.90;;;;;;5121441;27;19916;-55
2022/07/21 08:24:32;;;;;;;;;;;21.50;99.90;;;;;;5084922;28;19912;-54
2022/07/21 08:27:11;;;;;;;;;;;21.80;99.90;;;;;;5113097;27;19929;-55
2022/07/21 08:29:52;;;;;;;;;;;22.20;99.90;;;;;;5124223;27;19912;-55
2022/07/21 08:32:33;;;;;;;;;;;22.60;99.90;;;;;;5124867;27;19911;-54
2022/07/21 08:35:13;;;;;;;;;;;23.00;99.90;;;;;;5122658;27;19912;-55
2022/07/21 08:37:55;;;;;;;;;;;23.00;99.90;;;;;;5124503;27;20274;-54
2022/07/21 08:40:37;;;;;;;;;;;22.80;99.90;;;;;;5125377;27;20486;-55
2022/07/21 08:43:17;;;;;;;;;;;22.70;99.90;;;;;;5105032;27;19945;-55
2022/07/21 08:45:57;;;;;;;;;;;22.80;99.90;;;;;;5095589;27;19970;-55
2022/07/21 08:48:37;;;;;;;;;;;22.90;99.90;;;;;;5125256;27;19916;-55
2022/07/21 08:51:16;;;;;;;;;;;22.90;99.90;;;;;;5125399;27;20373;-54
2022/07/21 08:53:56;;;;;;;;;;;22.90;99.90;;;;;;5118127;27;19926;-55
2022/07/21 08:56:36;;;;;;;;;;;22.80;99.90;;;;;;5110315;27;19912;-55
2022/07/21 08:59:16;;;;;;;;;;;22.80;99.90;;;;;;5125861;27;19912;-54
2022/07/21 09:01:56;;;;;;;;;;;22.80;99.90;;;;;;5108722;27;19961;-56
2022/07/21 09:04:36;;;;;;;;;;;22.90;99.90;;;;;;5125289;27;19912;-55
2022/07/21 09:07:15;;;;;;;;;;;23.10;99.90;;;;;;5104299;27;19912;-56
2022/07/21 09:09:59;;;;;;;;;;;23.20;99.90;;;;;;5126047;27;19912;-55
2022/07/21 09:12:48;;;;;;;;;;;23.20;99.90;;;;;;5083153;27;19927;-56
2022/07/21 09:15:31;;;;;;;;;;;23.40;99.90;;;;;;5120097;27;20332;-57
2022/07/21 09:18:12;;;;;;;;;;;23.50;99.90;;;;;;5097314;27;19912;-56
2022/07/21 09:20:53;;;;;;;;;;;23.70;99.90;;;;;;5120727;27;20369;-55
2022/07/21 09:23:34;;;;;;;;;;;23.80;99.90;;;;;;5120615;27;19918;-56
2022/07/21 09:26:13;;;;;;;;;;;24.00;99.90;;;;;;5121891;27;19918;-56
2022/07/21 09:28:53;;;;;;;;;;;24.10;99.90;;;;;;5116591;27;20385;-56
2022/07/21 09:31:33;;;;;;;;;;;24.00;99.90;;;;;;5100023;27;19916;-56
2022/07/21 09:34:15;;;;;;;;;;;23.70;99.90;;;;;;5119897;27;19915;-56
2022/07/21 09:36:58;;;;;;;;;;;23.50;99.90;;;;;;5070354;27;19912;-56
2022/07/21 09:39:44;;;;;;;;;;;23.30;99.90;;;;;;5111611;27;19954;-56
2022/07/21 09:42:25;;;;;;;;;;;23.40;99.90;;;;;;5122071;27;19919;-56
2022/07/21 09:45:06;;;;;;;;;;;23.40;99.90;;;;;;5123545;27;20369;-56
2022/07/21 09:47:47;;;;;;;;;;;23.50;99.90;;;;;;5123809;27;19911;-55
2022/07/21 09:50:28;;;;;;;;;;;23.40;99.90;;;;;;5104757;27;20404;-56
2022/07/21 09:53:08;;;;;;;;;;;23.30;99.90;;;;;;5125158;27;19912;-56
2022/07/21 09:55:47;;;;;;;;;;;23.20;99.90;;;;;;5120116;27;19916;-56
2022/07/21 09:58:27;;;;;;;;;;;23.40;99.90;;;;;;5111570;27;19916;-56
2022/07/21 10:01:07;;;;;;;;;;;23.40;99.90;;;;;;5105430;27;20423;-56
2022/07/21 10:03:48;;;;;;;;;;;23.50;99.90;;;;;;5120253;27;20385;-56
2022/07/21 10:06:30;;;;;;;;;;;23.70;99.90;;;;;;5110727;27;19916;-55
2022/07/21 10:09:10;;;;;;;;;;;23.60;99.90;;;;;;5124513;27;19912;-57
2022/07/21 10:11:50;;;;;;;;;;;23.60;99.90;;;;;;5100690;27;19982;-56
2022/07/21 10:14:29;;;;;;;;;;;23.70;99.90;;;;;;5120535;27;19912;-56
2022/07/21 10:17:09;;;;;;;;;;;23.60;99.90;;;;;;5108727;27;19916;-56
2022/07/21 10:19:57;;;;;;;;;;;23.50;99.90;;;;;;5124324;27;19919;-56
2022/07/21 10:22:50;;;;;;;;;;;23.30;99.90;;;;;;5125525;27;20274;-56
2022/07/21 10:25:30;;;;;;;;;;;23.20;99.90;;;;;;5098065;27;19927;-56
2022/07/21 10:28:18;;;;;;;;;;;23.30;99.90;;;;;;5109195;27;19912;-56
2022/07/21 10:31:00;;;;;;;;;;;23.40;99.90;;;;;;5119108;27;19915;-56
2022/07/21 10:33:59;;;;;;;;;;;23.60;99.90;;;;;;5125027;27;19911;-56
2022/07/21 10:36:43;;;;;;;;;;;23.80;99.90;;;;;;5109543;27;20319;-56
2022/07/21 10:39:27;;;;;;;;;;;23.90;99.90;;;;;;5121899;27;19912;-56
2022/07/21 10:42:16;;;;;;;;;;;23.90;99.90;;;;;;5118659;27;19944;-56
2022/07/21 10:44:56;;;;;;;;;;;23.90;99.90;;;;;;5104663;27;19912;-56
2022/07/21 10:47:37;;;;;;;;;;;23.70;99.90;;;;;;5116378;27;19916;-56
2022/07/21 10:50:29;;;;;;;;;;;23.80;99.90;;;;;;5088835;28;19920;-56
2022/07/21 10:53:14;;;;;;;;;;;24.00;99.90;;;;;;5120388;27;19919;-56
2022/07/21 10:55:55;;;;;;;;;;;24.00;99.90;;;;;;5116053;27;20096;-57
2022/07/21 10:58:38;;;;;;;;;;;24.10;99.90;;;;;;5124880;27;19912;-58
2022/07/21 11:01:24;;;;;;;;;;;24.50;99.90;;;;;;5104613;27;20385;-56
2022/07/21 11:04:11;;;;;;;;;;;25.20;99.90;;;;;;5102375;27;19949;-56
2022/07/21 11:06:52;;;;;;;;;;;25.80;99.90;;;;;;5089273;27;19911;-56
2022/07/21 11:09:32;;;;;;;;;;;26.20;99.90;;;;;;5123062;27;19918;-56
2022/07/21 11:12:11;;;;;;;;;;;26.30;99.90;;;;;;5121549;27;19934;-56
2022/07/21 11:14:51;;;;;;;;;;;26.50;99.90;;;;;;5101838;27;19926;-56
2022/07/21 11:17:32;;;;;;;;;;;26.40;99.90;;;;;;5123388;27;19911;-56
2022/07/21 11:20:15;;;;;;;;;;;26.10;99.90;;;;;;5122863;27;20001;-56
2022/07/21 11:23:02;;;;;;;;;;;26.10;99.90;;;;;;5125158;27;19919;-56
2022/07/21 11:25:44;;;;;;;;;;;26.00;99.90;;;;;;5117053;27;19916;-56
2022/07/21 11:28:25;;;;;;;;;;;26.00;99.90;;;;;;5125422;27;19915;-56
2022/07/21 11:31:09;;;;;;;;;;;25.80;99.90;;;;;;5105033;27;19949;-56
2022/07/21 11:33:49;;;;;;;;;;;25.50;99.90;;;;;;5107012;27;19913;-56
2022/07/21 11:36:32;;;;;;;;;;;25.00;99.90;;;;;;5111322;27;19920;-56
2022/07/21 11:39:14;;;;;;;;;;;25.10;99.90;;;;;;5124638;27;20296;-56
2022/07/21 11:41:54;;;;;;;;;;;25.30;99.90;;;;;;5112756;27;19946;-56
2022/07/21 11:44:35;;;;;;;;;;;25.50;99.90;;;;;;5098659;27;19912;-56
2022/07/21 11:47:15;;;;;;;;;;;25.70;99.90;;;;;;5095043;27;19920;-56
2022/07/21 11:49:57;;;;;;;;;;;25.80;99.90;;;;;;5104187;27;20340;-56
2022/07/21 11:52:39;;;;;;;;;;;25.70;99.90;;;;;;5100047;27;19946;-56
2022/07/21 11:55:19;;;;;;;;;;;25.60;99.90;;;;;;5113414;27;20292;-56
2022/07/21 11:57:59;;;;;;;;;;;25.80;99.90;;;;;;5096663;27;19926;-56
2022/07/21 12:00:39;;;;;;;;;;;26.40;99.90;;;;;;5114056;27;20281;-56
2022/07/21 12:03:18;;;;;;;;;;;27.00;99.90;;;;;;5101409;27;19953;-56
2022/07/21 12:05:59;;;;;;;;;;;27.60;99.90;;;;;;5095611;27;19916;-56
2022/07/21 12:08:40;;;;;;;;;;;28.10;99.90;;;;;;5109458;27;19913;-56
2022/07/21 12:11:20;;;;;;;;;;;28.50;99.90;;;;;;5119625;27;19912;-56
2022/07/21 12:14:01;;;;;;;;;;;28.90;99.90;;;;;;5121818;27;19912;-56
2022/07/21 12:16:49;;;;;;;;;;;28.80;99.90;;;;;;5110947;27;19942;-57
2022/07/21 12:19:29;;;;;;;;;;;28.80;99.90;;;;;;5120335;27;19912;-56
2022/07/21 12:22:09;;;;;;;;;;;29.00;99.90;;;;;;5121243;27;19926;-56
2022/07/21 12:24:56;;;;;;;;;;;28.90;99.90;;;;;;5122200;27;19953;-56
2022/07/21 12:27:38;;;;;;;;;;;28.60;99.90;;;;;;5112906;27;19922;-55
2022/07/21 12:30:32;;;;;;;;;;;28.50;99.90;;;;;;5140946;27;19921;-56
2022/07/21 12:33:12;;;;;;;;;;;28.30;99.90;;;;;;5122417;27;19912;-56
2022/07/21 12:36:00;;;;;;;;;;;28.30;99.90;;;;;;5097146;27;19916;-56
2022/07/21 12:38:41;;;;;;;;;;;28.40;99.90;;;;;;5124898;27;19911;-56
2022/07/21 12:41:21;;;;;;;;;;;28.40;99.90;;;;;;5100053;27;19916;-56
2022/07/21 12:44:03;;;;;;;;;;;28.60;99.90;;;;;;5115002;27;19916;-56
2022/07/21 12:46:44;;;;;;;;;;;28.80;99.90;;;;;;5106774;27;19919;-56
2022/07/21 12:49:24;;;;;;;;;;;29.10;99.90;;;;;;5111210;27;19934;-58
2022/07/21 12:52:06;;;;;;;;;;;29.10;99.90;;;;;;5103769;27;19920;-55
2022/07/21 12:54:46;;;;;;;;;;;28.70;99.90;;;;;;5104613;27;19912;-56
2022/07/21 12:57:30;;;;;;;;;;;28.70;99.90;;;;;;5124430;27;19916;-57
2022/07/21 13:00:10;;;;;;;;;;;28.90;99.90;;;;;;5125523;27;19911;-56
2022/07/21 13:02:51;;;;;;;;;;;29.10;99.90;;;;;;5124926;27;19922;-58
2022/07/21 13:05:32;;;;;;;;;;;29.50;99.90;;;;;;5098735;27;19913;-56
2022/07/21 13:08:12;;;;;;;;;;;29.60;99.90;;;;;;5105215;27;19945;-56
2022/07/21 13:10:52;;;;;;;;;;;29.40;99.90;;;;;;5084446;28;19913;-56
2022/07/21 13:13:32;;;;;;;;;;;29.50;99.90;;;;;;5124156;27;19949;-56
2022/07/21 13:16:12;;;;;;;;;;;29.20;99.90;;;;;;5096432;27;20279;-56
2022/07/21 13:18:51;;;;;;;;;;;29.20;99.90;;;;;;5123211;27;20476;-56
2022/07/21 13:21:31;;;;;;;;;;;29.10;99.90;;;;;;5083803;28;19916;-56
2022/07/21 13:24:11;;;;;;;;;;;29.20;99.90;;;;;;5104293;27;19912;-55
2022/07/21 13:26:51;;;;;;;;;;;29.50;99.90;;;;;;5073495;27;19921;-56
2022/07/21 13:29:31;;;;;;;;;;;29.50;99.90;;;;;;5061458;28;19917;-56
2022/07/21 13:32:10;;;;;;;;;;;29.80;99.90;;;;;;5125420;27;19911;-56
2022/07/21 13:34:51;;;;;;;;;;;30.00;98.50;;;;;;5124981;27;20090;-57
2022/07/21 13:37:32;;;;;;;;;;;30.00;96.10;;;;;;5124031;27;19912;-56
2022/07/21 13:40:12;;;;;;;;;;;29.90;93.40;;;;;;5126080;27;20404;-56
2022/07/21 13:42:51;;;;;;;;;;;29.60;96.50;;;;;;5084333;28;19912;-56
2022/07/21 13:45:31;;;;;;;;;;;29.30;95.40;;;;;;5120576;27;19912;-56
2022/07/21 13:48:11;;;;;;;;;;;28.80;99.00;;;;;;5125500;27;19912;-58
2022/07/21 13:50:51;;;;;;;;;;;28.60;99.90;;;;;;5125345;27;19916;-56
2022/07/21 13:53:31;;;;;;;;;;;28.70;99.90;;;;;;5105012;27;19912;-56
2022/07/21 13:56:11;;;;;;;;;;;28.50;99.90;;;;;;5115006;27;19935;-56
2022/07/21 13:58:52;;;;;;;;;;;28.60;99.90;;;;;;5125408;27;19912;-56
2022/07/21 14:01:32;;;;;;;;;;;28.70;99.90;;;;;;5126211;27;19926;-56
2022/07/21 14:04:12;;;;;;;;;;;28.90;99.20;;;;;;5126211;27;19912;-56
2022/07/21 14:06:52;;;;;;;;;;;28.90;99.30;;;;;;5108768;27;19912;-56
2022/07/21 14:09:31;;;;;;;;;;;28.70;98.90;;;;;;5125611;27;20006;-56
2022/07/21 14:12:11;;;;;;;;;;;28.60;99.90;;;;;;5084339;28;19913;-56
2022/07/21 14:14:51;;;;;;;;;;;28.30;98.40;;;;;;5125308;27;19911;-56
2022/07/21 14:17:31;;;;;;;;;;;28.30;99.90;;;;;;5124852;27;20194;-56
2022/07/21 14:20:11;;;;;;;;;;;28.30;98.70;;;;;;5125651;27;20390;-56
2022/07/21 14:22:52;;;;;;;;;;;28.40;96.60;;;;;;5125746;27;19949;-56
2022/07/21 14:25:32;;;;;;;;;;;28.70;99.10;;;;;;5120331;27;19912;-56
2022/07/21 14:28:12;;;;;;;;;;;28.90;96.40;;;;;;5151910;27;19911;-56
2022/07/21 14:30:51;;;;;;;;;;;29.00;94.30;;;;;;5125510;27;19912;-56
2022/07/21 14:33:31;;;;;;;;;;;28.90;95.50;;;;;;5105727;27;19916;-56
2022/07/21 14:36:11;;;;;;;;;;;28.70;97.20;;;;;;5113983;27;19920;-56
2022/07/21 14:38:51;;;;;;;;;;;28.60;98.80;;;;;;5125727;27;20096;-56
2022/07/21 14:41:31;;;;;;;;;;;29.00;97.70;;;;;;5125671;27;19938;-56
2022/07/21 14:44:11;;;;;;;;;;;29.50;95.80;;;;;;5125823;27;19911;-55
2022/07/21 14:46:50;;;;;;;;;;;29.60;92.80;;;;;;5108923;27;19912;-56
2022/07/21 14:49:30;;;;;;;;;;;29.60;91.10;;;;;;5126221;27;19919;-56
2022/07/21 14:52:10;;;;;;;;;;;29.10;91.00;;;;;;5105659;27;19956;-56
2022/07/21 14:54:50;;;;;;;;;;;28.60;94.10;;;;;;5101315;27;20336;-56
2022/07/21 14:57:30;;;;;;;;;;;28.30;99.10;;;;;;5123720;27;20385;-58
2022/07/21 15:00:10;;;;;;;;;;;28.30;99.90;;;;;;5126240;27;19911;-56
2022/07/21 15:02:51;;;;;;;;;;;28.00;99.90;;;;;;5085093;28;20259;-55
2022/07/21 15:05:31;;;;;;;;;;;27.80;99.90;;;;;;5101162;27;20115;-55
2022/07/21 15:08:11;;;;;;;;;;;27.80;99.90;;;;;;5125665;27;19918;-58
2022/07/21 15:10:53;;;;;;;;;;;28.40;99.90;;;;;;5125826;27;20389;-55
2022/07/21 15:13:33;;;;;;;;;;;29.20;99.90;;;;;;5125389;27;19912;-55
2022/07/21 15:16:13;;;;;;;;;;;29.50;97.50;;;;;;5114934;27;19920;-56
2022/07/21 15:18:53;;;;;;;;;;;29.50;93.60;;;;;;5126275;27;19915;-56
2022/07/21 15:21:33;;;;;;;;;;;29.60;93.90;;;;;;5105438;27;19923;-56
2022/07/21 15:24:15;;;;;;;;;;;29.60;93.90;;;;;;5125641;27;20296;-55
2022/07/21 15:26:54;;;;;;;;;;;30.00;92.50;;;;;;5107767;27;19912;-56
2022/07/21 15:29:34;;;;;;;;;;;30.10;88.70;;;;;;5105229;27;19916;-56
2022/07/21 15:32:14;;;;;;;;;;;30.10;84.50;;;;;;5125119;27;19958;-58
2022/07/21 15:34:54;;;;;;;;;;;30.20;87.20;;;;;;5125544;27;20292;-56
2022/07/21 15:37:34;;;;;;;;;;;30.20;88.90;;;;;;5124548;27;19918;-57